sensor_id;sensor_type;location;lat;lon;timestamp;pressure;altitude;pressure_sealevel;temperature;humidity
54022;BME280;39936;51.058;17.220;2022-08-03T00:01:09;101892.33;;;14.69;100.00
54022;BME280;39936;51.058;17.220;2022-08-03T00:04:21;101894.80;;;14.64;100.00
54022;BME280;39936;51.058;17.220;2022-08-03T00:07:42;101894.94;;;14.64;100.00
54022;BME280;39936;51.058;17.220;2022-08-03T00:15:30;101895.77;;;14.65;100.00
54022;BME280;39936;51.058;17.220;2022-08-03T00:20:45;101894.42;;;14.71;100.00
54022;BME280;39936;51.058;17.220;2022-08-03T00:24:16;101895.27;;;14.73;100.00
54022;BME280;39936;51.058;17.220;2022-08-03T00:27:57;101897.00;;;14.70;100.00
54022;BME280;39936;51.058;17.220;2022-08-03T00:31:34;101894.23;;;14.67;100.00
54022;BME280;39936;51.058;17.220;2022-08-03T00:34:47;101895.01;;;14.67;100.00
54022;BME280;39936;51.058;17.220;2022-08-03T00:38:30;101894.44;;;14.63;100.00
54022;BME280;39936;51.058;17.220;2022-08-03T00:42:20;101899.14;;;14.60;100.00
54022;BME280;39936;51.058;17.220;2022-08-03T00:46:04;101897.30;;;14.56;100.00
54022;BME280;39936;51.058;17.220;2022-08-03T00:49:41;101896.38;;;14.49;100.00
54022;BME280;39936;51.058;17.220;2022-08-03T00:53:27;101899.78;;;14.39;100.00
54022;BME280;39936;51.058;17.220;2022-08-03T00:57:33;101899.84;;;14.33;100.00
54022;BME280;39936;51.058;17.220;2022-08-03T01:01:16;101897.70;;;14.33;100.00
54022;BME280;39936;51.058;17.220;2022-08-03T01:04:51;101897.56;;;14.32;100.00
54022;BME280;39936;51.058;17.220;2022-08-03T01:12:07;101899.17;;;14.27;100.00
54022;BME280;39936;51.058;17.220;2022-08-03T01:16:04;101888.89;;;14.20;100.00
54022;BME280;39936;51.058;17.220;2022-08-03T01:30:12;101893.48;;;14.05;100.00
54022;BME280;39936;51.058;17.220;2022-08-03T01:33:45;101889.94;;;14.02;100.00
54022;BME280;39936;51.058;17.220;2022-08-03T01:37:10;101894.80;;;14.03;100.00
54022;BME280;39936;51.058;17.220;2022-08-03T01:40:28;101892.69;;;14.03;100.00
54022;BME280;39936;51.058;17.220;2022-08-03T01:43:58;101884.77;;;13.94;100.00
54022;BME280;39936;51.058;17.220;2022-08-03T01:47:36;101887.00;;;13.87;100.00
54022;BME280;39936;51.058;17.220;2022-08-03T01:50:56;101890.26;;;13.88;100.00
54022;BME280;39936;51.058;17.220;2022-08-03T01:54:27;101887.09;;;13.86;100.00
54022;BME280;39936;51.058;17.220;2022-08-03T01:58:27;101882.26;;;13.74;100.00
54022;BME280;39936;51.058;17.220;2022-08-03T02:02:11;101880.52;;;13.68;100.00
54022;BME280;39936;51.058;17.220;2022-08-03T02:06:19;101880.13;;;13.72;100.00
54022;BME280;39936;51.058;17.220;2022-08-03T02:09:38;101876.54;;;13.75;100.00
54022;BME280;39936;51.058;17.220;2022-08-03T02:12:56;101875.23;;;13.75;100.00
54022;BME280;39936;51.058;17.220;2022-08-03T02:16:33;101871.76;;;13.73;100.00
54022;BME280;39936;51.058;17.220;2022-08-03T02:20:06;101869.84;;;13.68;100.00
54022;BME280;39936;51.058;17.220;2022-08-03T02:23:28;101865.63;;;13.65;100.00
54022;BME280;39936;51.058;17.220;2022-08-03T02:26:54;101866.48;;;13.70;100.00
54022;BME280;39936;51.058;17.220;2022-08-03T02:30:08;101866.23;;;13.74;100.00
54022;BME280;39936;51.058;17.220;2022-08-03T02:34:07;101868.38;;;13.77;100.00
54022;BME280;39936;51.058;17.220;2022-08-03T02:37:57;101864.03;;;13.80;100.00
54022;BME280;39936;51.058;17.220;2022-08-03T02:41:42;101863.61;;;13.77;100.00
54022;BME280;39936;51.058;17.220;2022-08-03T02:45:46;101864.20;;;13.80;100.00
54022;BME280;39936;51.058;17.220;2022-08-03T02:49:01;101864.87;;;13.86;100.00
54022;BME280;39936;51.058;17.220;2022-08-03T02:52:41;101864.16;;;13.92;100.00
54022;BME280;39936;51.058;17.220;2022-08-03T02:56:17;101869.36;;;13.96;100.00
54022;BME280;39936;51.058;17.220;2022-08-03T02:59:53;101869.32;;;14.04;100.00
54022;BME280;39936;51.058;17.220;2022-08-03T03:03:40;101874.74;;;14.10;100.00
54022;BME280;39936;51.058;17.220;2022-08-03T03:06:56;101877.63;;;14.13;100.00
54022;BME280;39936;51.058;17.220;2022-08-03T03:10:39;101876.05;;;14.18;100.00
54022;BME280;39936;51.058;17.220;2022-08-03T03:14:35;101880.84;;;14.27;100.00
54022;BME280;39936;51.058;17.220;2022-08-03T03:18:00;101876.74;;;14.40;100.00
54022;BME280;39936;51.058;17.220;2022-08-03T03:21:42;101878.20;;;14.50;100.00
54022;BME280;39936;51.058;17.220;2022-08-03T03:25:39;101873.73;;;14.51;100.00
54022;BME280;39936;51.058;17.220;2022-08-03T03:29:07;101870.77;;;14.54;100.00
54022;BME280;39936;51.058;17.220;2022-08-03T03:32:39;101874.70;;;14.64;100.00
54022;BME280;39936;51.058;17.220;2022-08-03T03:37:05;101873.28;;;14.71;100.00
54022;BME280;39936;51.058;17.220;2022-08-03T03:40:54;101874.93;;;14.76;100.00
54022;BME280;39936;51.058;17.220;2022-08-03T03:44:33;101878.76;;;14.86;100.00
54022;BME280;39936;51.058;17.220;2022-08-03T03:48:10;101878.20;;;14.95;100.00
54022;BME280;39936;51.058;17.220;2022-08-03T03:51:34;101881.45;;;15.23;100.00
54022;BME280;39936;51.058;17.220;2022-08-03T03:54:49;101877.57;;;15.53;100.00
54022;BME280;39936;51.058;17.220;2022-08-03T03:58:23;101875.83;;;15.78;100.00
54022;BME280;39936;51.058;17.220;2022-08-03T04:01:58;101879.05;;;15.91;100.00
54022;BME280;39936;51.058;17.220;2022-08-03T04:05:39;101872.73;;;16.40;100.00
54022;BME280;39936;51.058;17.220;2022-08-03T04:09:35;101870.34;;;16.94;100.00
54022;BME280;39936;51.058;17.220;2022-08-03T04:13:38;101867.51;;;16.93;100.00
54022;BME280;39936;51.058;17.220;2022-08-03T04:17:27;101867.77;;;16.71;100.00
54022;BME280;39936;51.058;17.220;2022-08-03T04:21:30;101871.98;;;16.53;100.00
54022;BME280;39936;51.058;17.220;2022-08-03T04:25:33;101875.13;;;16.41;100.00
54022;BME280;39936;51.058;17.220;2022-08-03T04:29:15;101876.53;;;16.24;100.00
54022;BME280;39936;51.058;17.220;2022-08-03T04:33:18;101883.18;;;16.09;100.00
54022;BME280;39936;51.058;17.220;2022-08-03T04:37:13;101886.08;;;16.02;100.00
54022;BME280;39936;51.058;17.220;2022-08-03T04:40:53;101890.08;;;16.00;100.00
54022;BME280;39936;51.058;17.220;2022-08-03T04:44:43;101888.72;;;16.17;100.00
54022;BME280;39936;51.058;17.220;2022-08-03T04:48:01;101881.14;;;16.22;100.00
54022;BME280;39936;51.058;17.220;2022-08-03T04:51:27;101884.52;;;16.27;100.00
54022;BME280;39936;51.058;17.220;2022-08-03T04:54:42;101880.29;;;16.46;100.00
54022;BME280;39936;51.058;17.220;2022-08-03T04:58:34;101880.49;;;16.70;100.00
54022;BME280;39936;51.058;17.220;2022-08-03T05:02:06;101883.36;;;16.95;100.00
54022;BME280;39936;51.058;17.220;2022-08-03T05:06:00;101885.83;;;17.10;100.00
54022;BME280;39936;51.058;17.220;2022-08-03T05:09:13;101882.54;;;17.26;100.00
54022;BME280;39936;51.058;17.220;2022-08-03T05:12:36;101876.48;;;17.43;100.00
54022;BME280;39936;51.058;17.220;2022-08-03T05:16:18;101875.27;;;17.63;100.00
54022;BME280;39936;51.058;17.220;2022-08-03T05:20:30;101875.05;;;17.86;100.00
54022;BME280;39936;51.058;17.220;2022-08-03T05:23:44;101868.91;;;18.10;100.00
54022;BME280;39936;51.058;17.220;2022-08-03T05:26:55;101867.60;;;18.33;100.00
54022;BME280;39936;51.058;17.220;2022-08-03T05:30:28;101872.81;;;18.41;100.00
54022;BME280;39936;51.058;17.220;2022-08-03T05:34:15;101876.37;;;18.63;100.00
54022;BME280;39936;51.058;17.220;2022-08-03T05:37:47;101873.23;;;18.87;100.00
54022;BME280;39936;51.058;17.220;2022-08-03T05:41:03;101872.34;;;19.09;100.00
54022;BME280;39936;51.058;17.220;2022-08-03T05:44:14;101877.54;;;19.40;99.15
54022;BME280;39936;51.058;17.220;2022-08-03T05:48:19;101873.87;;;19.89;98.21
54022;BME280;39936;51.058;17.220;2022-08-03T05:51:42;101868.16;;;20.38;93.91
54022;BME280;39936;51.058;17.220;2022-08-03T05:55:54;101868.88;;;20.87;90.75
54022;BME280;39936;51.058;17.220;2022-08-03T05:59:26;101866.53;;;21.46;88.07
54022;BME280;39936;51.058;17.220;2022-08-03T06:03:24;101863.60;;;21.98;84.72
54022;BME280;39936;51.058;17.220;2022-08-03T06:07:32;101861.15;;;22.57;81.34
54022;BME280;39936;51.058;17.220;2022-08-03T06:10:58;101858.52;;;22.92;76.73
54022;BME280;39936;51.058;17.220;2022-08-03T06:14:07;101860.35;;;23.16;76.34
54022;BME280;39936;51.058;17.220;2022-08-03T06:17:28;101858.40;;;23.29;75.83
54022;BME280;39936;51.058;17.220;2022-08-03T06:20:57;101858.78;;;23.53;75.97
54022;BME280;39936;51.058;17.220;2022-08-03T06:24:34;101861.31;;;23.98;74.50
54022;BME280;39936;51.058;17.220;2022-08-03T06:28:16;101853.97;;;24.44;71.79
54022;BME280;39936;51.058;17.220;2022-08-03T06:32:20;101850.45;;;24.71;67.83
54022;BME280;39936;51.058;17.220;2022-08-03T06:35:58;101860.48;;;24.44;68.56
54022;BME280;39936;51.058;17.220;2022-08-03T06:39:53;101859.92;;;24.49;68.11
54022;BME280;39936;51.058;17.220;2022-08-03T06:43:37;101862.54;;;24.24;68.03
54022;BME280;39936;51.058;17.220;2022-08-03T06:47:02;101863.35;;;24.03;69.41
54022;BME280;39936;51.058;17.220;2022-08-03T06:50:43;101869.09;;;23.93;69.72
54022;BME280;39936;51.058;17.220;2022-08-03T06:54:12;101868.49;;;23.99;66.74
54022;BME280;39936;51.058;17.220;2022-08-03T06:57:43;101868.87;;;23.99;67.58
54022;BME280;39936;51.058;17.220;2022-08-03T07:01:24;101868.87;;;23.93;65.85
54022;BME280;39936;51.058;17.220;2022-08-03T07:05:23;101862.76;;;24.26;68.15
54022;BME280;39936;51.058;17.220;2022-08-03T07:09:01;101861.11;;;24.29;67.56
54022;BME280;39936;51.058;17.220;2022-08-03T07:12:14;101863.02;;;24.25;68.75
54022;BME280;39936;51.058;17.220;2022-08-03T07:15:49;101860.18;;;24.47;66.53
54022;BME280;39936;51.058;17.220;2022-08-03T07:20:11;101847.72;;;24.76;66.30
54022;BME280;39936;51.058;17.220;2022-08-03T07:24:02;101851.52;;;25.09;64.69
54022;BME280;39936;51.058;17.220;2022-08-03T07:27:33;101846.00;;;25.35;61.77
54022;BME280;39936;51.058;17.220;2022-08-03T07:30:58;101846.14;;;25.54;62.81
54022;BME280;39936;51.058;17.220;2022-08-03T07:38:47;101838.92;;;25.79;64.10
54022;BME280;39936;51.058;17.220;2022-08-03T07:42:49;101839.80;;;26.27;59.62
54022;BME280;39936;51.058;17.220;2022-08-03T07:46:00;101831.92;;;26.77;59.61
54022;BME280;39936;51.058;17.220;2022-08-03T07:49:46;101831.09;;;26.99;58.55
54022;BME280;39936;51.058;17.220;2022-08-03T07:53:27;101831.97;;;27.28;56.06
54022;BME280;39936;51.058;17.220;2022-08-03T07:57:14;101830.48;;;27.04;56.36
54022;BME280;39936;51.058;17.220;2022-08-03T08:00:53;101833.37;;;27.01;54.88
54022;BME280;39936;51.058;17.220;2022-08-03T08:04:28;101833.70;;;27.05;54.07
54022;BME280;39936;51.058;17.220;2022-08-03T08:08:13;101832.38;;;26.81;55.51
54022;BME280;39936;51.058;17.220;2022-08-03T08:11:25;101835.69;;;26.82;54.22
54022;BME280;39936;51.058;17.220;2022-08-03T08:19:08;101834.35;;;27.01;55.38
54022;BME280;39936;51.058;17.220;2022-08-03T08:27:32;101831.01;;;27.21;52.38
54022;BME280;39936;51.058;17.220;2022-08-03T08:35:32;101836.28;;;27.65;51.08
54022;BME280;39936;51.058;17.220;2022-08-03T08:39:23;101834.91;;;27.79;49.88
54022;BME280;39936;51.058;17.220;2022-08-03T08:43:05;101829.81;;;27.92;47.70
54022;BME280;39936;51.058;17.220;2022-08-03T08:46:47;101829.16;;;28.08;49.59
54022;BME280;39936;51.058;17.220;2022-08-03T08:50:34;101830.45;;;27.90;44.74
54022;BME280;39936;51.058;17.220;2022-08-03T08:54:08;101827.10;;;27.87;48.17
54022;BME280;39936;51.058;17.220;2022-08-03T08:58:18;101824.95;;;27.99;48.81
54022;BME280;39936;51.058;17.220;2022-08-03T09:02:09;101826.74;;;28.13;47.97
54022;BME280;39936;51.058;17.220;2022-08-03T09:05:53;101822.09;;;28.42;47.29
54022;BME280;39936;51.058;17.220;2022-08-03T09:09:50;101821.17;;;28.61;46.22
54022;BME280;39936;51.058;17.220;2022-08-03T09:13:16;101818.60;;;28.74;45.80
54022;BME280;39936;51.058;17.220;2022-08-03T09:16:59;101820.30;;;28.80;46.23
54022;BME280;39936;51.058;17.220;2022-08-03T09:20:35;101819.96;;;28.57;46.29
54022;BME280;39936;51.058;17.220;2022-08-03T09:23:59;101817.32;;;28.29;44.02
54022;BME280;39936;51.058;17.220;2022-08-03T09:27:46;101813.99;;;28.23;47.23
54022;BME280;39936;51.058;17.220;2022-08-03T09:31:13;101808.33;;;28.37;47.25
54022;BME280;39936;51.058;17.220;2022-08-03T09:35:04;101804.48;;;28.63;46.71
54022;BME280;39936;51.058;17.220;2022-08-03T09:39:03;101797.64;;;29.06;46.74
54022;BME280;39936;51.058;17.220;2022-08-03T09:47:41;101795.76;;;28.95;42.82
54022;BME280;39936;51.058;17.220;2022-08-03T09:51:24;101795.00;;;28.61;41.65
54022;BME280;39936;51.058;17.220;2022-08-03T09:54:55;101799.15;;;28.52;44.16
54022;BME280;39936;51.058;17.220;2022-08-03T10:02:45;101789.07;;;29.01;42.62
54022;BME280;39936;51.058;17.220;2022-08-03T10:10:45;101788.38;;;29.25;39.87
54022;BME280;39936;51.058;17.220;2022-08-03T10:18:39;101787.45;;;28.47;41.56
54022;BME280;39936;51.058;17.220;2022-08-03T10:22:51;101777.55;;;28.91;44.22
54022;BME280;39936;51.058;17.220;2022-08-03T10:26:49;101775.54;;;28.73;39.74
54022;BME280;39936;51.058;17.220;2022-08-03T10:34:33;101772.99;;;28.98;45.48
54022;BME280;39936;51.058;17.220;2022-08-03T10:38:48;101770.52;;;29.30;43.76
54022;BME280;39936;51.058;17.220;2022-08-03T10:42:28;101770.18;;;29.11;41.09
54022;BME280;39936;51.058;17.220;2022-08-03T10:46:14;101765.98;;;28.85;42.37
54022;BME280;39936;51.058;17.220;2022-08-03T10:49:37;101766.47;;;29.06;43.57
54022;BME280;39936;51.058;17.220;2022-08-03T10:57:52;101765.41;;;29.37;43.84
54022;BME280;39936;51.058;17.220;2022-08-03T11:02:02;101759.88;;;29.36;45.27
54022;BME280;39936;51.058;17.220;2022-08-03T11:05:35;101761.97;;;29.40;41.94
54022;BME280;39936;51.058;17.220;2022-08-03T11:09:54;101759.37;;;29.15;42.83
54022;BME280;39936;51.058;17.220;2022-08-03T11:14:03;101752.16;;;29.26;40.79
54022;BME280;39936;51.058;17.220;2022-08-03T11:18:56;101752.88;;;29.66;41.88
54022;BME280;39936;51.058;17.220;2022-08-03T11:22:49;101742.96;;;29.97;42.63
54022;BME280;39936;51.058;17.220;2022-08-03T11:26:32;101743.31;;;30.06;39.79
54022;BME280;39936;51.058;17.220;2022-08-03T11:30:23;101746.95;;;29.65;38.50
54022;BME280;39936;51.058;17.220;2022-08-03T11:34:05;101745.77;;;29.37;37.22
54022;BME280;39936;51.058;17.220;2022-08-03T11:37:28;101742.96;;;29.53;41.05
54022;BME280;39936;51.058;17.220;2022-08-03T11:41:33;101737.88;;;29.89;40.42
54022;BME280;39936;51.058;17.220;2022-08-03T11:45:06;101732.32;;;30.07;38.58
54022;BME280;39936;51.058;17.220;2022-08-03T11:48:16;101733.97;;;30.06;36.33
54022;BME280;39936;51.058;17.220;2022-08-03T11:51:57;101730.32;;;30.04;36.92
54022;BME280;39936;51.058;17.220;2022-08-03T11:55:30;101725.29;;;29.99;37.60
54022;BME280;39936;51.058;17.220;2022-08-03T11:59:37;101728.48;;;29.52;37.83
54022;BME280;39936;51.058;17.220;2022-08-03T12:03:17;101720.97;;;29.72;38.61
54022;BME280;39936;51.058;17.220;2022-08-03T12:06:30;101719.31;;;29.55;39.73
54022;BME280;39936;51.058;17.220;2022-08-03T12:10:25;101714.16;;;29.79;40.70
54022;BME280;39936;51.058;17.220;2022-08-03T12:14:45;101711.09;;;29.75;39.17
54022;BME280;39936;51.058;17.220;2022-08-03T12:19:20;101703.56;;;29.99;38.83
54022;BME280;39936;51.058;17.220;2022-08-03T12:23:05;101700.29;;;30.01;37.22
54022;BME280;39936;51.058;17.220;2022-08-03T12:27:23;101697.30;;;30.32;38.64
54022;BME280;39936;51.058;17.220;2022-08-03T12:31:08;101700.59;;;30.19;37.82
54022;BME280;39936;51.058;17.220;2022-08-03T12:34:58;101698.67;;;30.25;35.60
54022;BME280;39936;51.058;17.220;2022-08-03T12:38:21;101698.28;;;29.89;35.64
54022;BME280;39936;51.058;17.220;2022-08-03T12:41:55;101696.09;;;29.99;36.25
54022;BME280;39936;51.058;17.220;2022-08-03T12:45:26;101698.20;;;29.80;35.82
54022;BME280;39936;51.058;17.220;2022-08-03T12:49:27;101700.99;;;29.41;36.34
54022;BME280;39936;51.058;17.220;2022-08-03T12:53:28;101696.58;;;29.00;36.01
54022;BME280;39936;51.058;17.220;2022-08-03T12:57:22;101694.69;;;29.07;37.43
54022;BME280;39936;51.058;17.220;2022-08-03T13:01:26;101689.87;;;29.48;38.38
54022;BME280;39936;51.058;17.220;2022-08-03T13:05:18;101684.44;;;29.87;36.65
54022;BME280;39936;51.058;17.220;2022-08-03T13:09:06;101681.47;;;30.05;35.90
54022;BME280;39936;51.058;17.220;2022-08-03T13:12:47;101683.02;;;29.88;35.77
54022;BME280;39936;51.058;17.220;2022-08-03T13:16:31;101681.83;;;30.04;38.99
54022;BME280;39936;51.058;17.220;2022-08-03T13:20:04;101680.20;;;30.27;37.93
54022;BME280;39936;51.058;17.220;2022-08-03T13:23:43;101679.68;;;30.67;37.61
54022;BME280;39936;51.058;17.220;2022-08-03T13:27:50;101685.85;;;30.54;34.62
54022;BME280;39936;51.058;17.220;2022-08-03T13:35:00;101685.82;;;30.07;34.24
54022;BME280;39936;51.058;17.220;2022-08-03T13:38:16;101682.84;;;30.13;34.41
54022;BME280;39936;51.058;17.220;2022-08-03T13:46:21;101681.93;;;29.72;34.71
54022;BME280;39936;51.058;17.220;2022-08-03T13:49:40;101675.54;;;29.63;34.99
54022;BME280;39936;51.058;17.220;2022-08-03T13:53:39;101672.89;;;29.67;35.80
54022;BME280;39936;51.058;17.220;2022-08-03T13:57:54;101666.93;;;29.66;34.42
54022;BME280;39936;51.058;17.220;2022-08-03T14:01:06;101663.46;;;29.70;36.01
54022;BME280;39936;51.058;17.220;2022-08-03T14:04:37;101663.48;;;29.90;34.73
54022;BME280;39936;51.058;17.220;2022-08-03T14:08:09;101652.03;;;30.22;36.55
54022;BME280;39936;51.058;17.220;2022-08-03T14:12:17;101651.52;;;30.54;34.79
54022;BME280;39936;51.058;17.220;2022-08-03T14:15:48;101649.05;;;30.71;33.25
54022;BME280;39936;51.058;17.220;2022-08-03T14:19:21;101649.76;;;30.47;33.66
54022;BME280;39936;51.058;17.220;2022-08-03T14:23:04;101648.77;;;30.29;34.08
54022;BME280;39936;51.058;17.220;2022-08-03T14:27:08;101646.69;;;30.07;33.05
54022;BME280;39936;51.058;17.220;2022-08-03T14:30:30;101649.60;;;29.95;35.10
54022;BME280;39936;51.058;17.220;2022-08-03T14:34:14;101647.24;;;29.77;33.87
54022;BME280;39936;51.058;17.220;2022-08-03T14:37:29;101637.97;;;30.02;34.10
54022;BME280;39936;51.058;17.220;2022-08-03T14:40:46;101638.97;;;30.15;33.02
54022;BME280;39936;51.058;17.220;2022-08-03T14:43:57;101636.73;;;30.23;34.43
54022;BME280;39936;51.058;17.220;2022-08-03T14:47:37;101638.62;;;30.49;35.32
54022;BME280;39936;51.058;17.220;2022-08-03T14:50:59;101636.15;;;30.83;33.92
54022;BME280;39936;51.058;17.220;2022-08-03T14:54:36;101629.57;;;30.58;33.40
54022;BME280;39936;51.058;17.220;2022-08-03T14:58:41;101627.46;;;30.22;33.30
54022;BME280;39936;51.058;17.220;2022-08-03T15:02:24;101625.09;;;30.11;33.50
54022;BME280;39936;51.058;17.220;2022-08-03T15:06:27;101621.62;;;30.17;34.47
54022;BME280;39936;51.058;17.220;2022-08-03T15:09:55;101618.66;;;30.14;34.38
54022;BME280;39936;51.058;17.220;2022-08-03T15:13:25;101614.73;;;30.38;34.66
54022;BME280;39936;51.058;17.220;2022-08-03T15:17:16;101612.52;;;30.56;34.31
54022;BME280;39936;51.058;17.220;2022-08-03T15:21:19;101614.83;;;30.79;32.60
54022;BME280;39936;51.058;17.220;2022-08-03T15:25:24;101610.11;;;30.62;35.57
54022;BME280;39936;51.058;17.220;2022-08-03T15:29:23;101608.67;;;30.66;32.50
54022;BME280;39936;51.058;17.220;2022-08-03T15:33:19;101608.73;;;30.28;34.36
54022;BME280;39936;51.058;17.220;2022-08-03T15:36:46;101606.82;;;30.36;34.18
54022;BME280;39936;51.058;17.220;2022-08-03T15:40:20;101609.67;;;30.36;33.72
54022;BME280;39936;51.058;17.220;2022-08-03T15:44:22;101608.70;;;30.16;33.33
54022;BME280;39936;51.058;17.220;2022-08-03T15:47:40;101606.98;;;30.08;33.24
54022;BME280;39936;51.058;17.220;2022-08-03T15:55:29;101606.74;;;30.16;33.80
54022;BME280;39936;51.058;17.220;2022-08-03T15:59:02;101603.74;;;30.14;33.14
54022;BME280;39936;51.058;17.220;2022-08-03T16:02:25;101600.66;;;30.09;32.65
54022;BME280;39936;51.058;17.220;2022-08-03T16:06:03;101595.92;;;30.08;33.95
54022;BME280;39936;51.058;17.220;2022-08-03T16:10:04;101594.23;;;29.98;33.05
54022;BME280;39936;51.058;17.220;2022-08-03T16:13:38;101588.88;;;29.91;34.36
54022;BME280;39936;51.058;17.220;2022-08-03T16:17:11;101584.20;;;30.09;33.60
54022;BME280;39936;51.058;17.220;2022-08-03T16:20:33;101583.67;;;30.06;34.32
54022;BME280;39936;51.058;17.220;2022-08-03T16:23:57;101583.64;;;30.02;33.84
54022;BME280;39936;51.058;17.220;2022-08-03T16:27:44;101579.44;;;29.97;33.04
54022;BME280;39936;51.058;17.220;2022-08-03T16:31:27;101580.93;;;29.89;33.45
54022;BME280;39936;51.058;17.220;2022-08-03T16:35:14;101579.18;;;29.92;33.55
54022;BME280;39936;51.058;17.220;2022-08-03T16:38:46;101576.58;;;29.80;33.60
54022;BME280;39936;51.058;17.220;2022-08-03T16:42:20;101575.91;;;29.87;33.55
54022;BME280;39936;51.058;17.220;2022-08-03T16:45:38;101574.56;;;29.83;33.74
54022;BME280;39936;51.058;17.220;2022-08-03T16:48:52;101575.88;;;29.81;33.39
54022;BME280;39936;51.058;17.220;2022-08-03T16:52:36;101579.45;;;29.74;34.14
54022;BME280;39936;51.058;17.220;2022-08-03T16:56:34;101582.62;;;29.64;34.52
54022;BME280;39936;51.058;17.220;2022-08-03T17:00:22;101586.48;;;29.58;35.00
54022;BME280;39936;51.058;17.220;2022-08-03T17:04:07;101590.20;;;29.46;35.93
54022;BME280;39936;51.058;17.220;2022-08-03T17:11:42;101594.70;;;29.17;38.41
54022;BME280;39936;51.058;17.220;2022-08-03T17:15:18;101595.91;;;29.05;38.63
54022;BME280;39936;51.058;17.220;2022-08-03T17:23:05;101595.96;;;28.86;39.28
54022;BME280;39936;51.058;17.220;2022-08-03T17:26:26;101601.05;;;28.78;39.48
54022;BME280;39936;51.058;17.220;2022-08-03T17:30:09;101602.94;;;28.70;39.76
54022;BME280;39936;51.058;17.220;2022-08-03T17:33:45;101603.63;;;28.64;39.82
54022;BME280;39936;51.058;17.220;2022-08-03T17:37:48;101608.16;;;28.54;39.86
54022;BME280;39936;51.058;17.220;2022-08-03T17:41:04;101611.27;;;28.47;40.15
54022;BME280;39936;51.058;17.220;2022-08-03T17:44:19;101614.27;;;28.44;40.67
54022;BME280;39936;51.058;17.220;2022-08-03T17:48:01;101612.48;;;28.33;40.95
54022;BME280;39936;51.058;17.220;2022-08-03T17:51:55;101617.42;;;28.20;41.32
54022;BME280;39936;51.058;17.220;2022-08-03T17:55:41;101614.77;;;28.01;41.96
54022;BME280;39936;51.058;17.220;2022-08-03T18:03:36;101626.63;;;27.73;42.23
54022;BME280;39936;51.058;17.220;2022-08-03T18:07:40;101632.79;;;27.50;42.81
54022;BME280;39936;51.058;17.220;2022-08-03T18:11:39;101634.80;;;27.25;43.19
54022;BME280;39936;51.058;17.220;2022-08-03T18:15:33;101639.23;;;27.04;43.68
54022;BME280;39936;51.058;17.220;2022-08-03T18:19:06;101641.72;;;26.80;44.37
54022;BME280;39936;51.058;17.220;2022-08-03T18:23:10;101646.68;;;26.59;44.48
54022;BME280;39936;51.058;17.220;2022-08-03T18:26:36;101647.49;;;26.37;45.36
54022;BME280;39936;51.058;17.220;2022-08-03T18:30:41;101649.05;;;26.09;46.06
54022;BME280;39936;51.058;17.220;2022-08-03T18:34:43;101654.09;;;25.89;46.39
54022;BME280;39936;51.058;17.220;2022-08-03T18:38:16;101655.35;;;25.71;47.06
54022;BME280;39936;51.058;17.220;2022-08-03T18:41:41;101663.99;;;25.54;47.71
54022;BME280;39936;51.058;17.220;2022-08-03T18:44:54;101664.55;;;25.37;48.70
54022;BME280;39936;51.058;17.220;2022-08-03T18:48:49;101670.47;;;25.23;49.23
54022;BME280;39936;51.058;17.220;2022-08-03T18:56:00;101678.83;;;24.96;50.06
54022;BME280;39936;51.058;17.220;2022-08-03T19:03:01;101680.89;;;24.71;50.72
54022;BME280;39936;51.058;17.220;2022-08-03T19:06:44;101682.03;;;24.61;50.68
54022;BME280;39936;51.058;17.220;2022-08-03T19:10:32;101686.39;;;24.48;51.26
54022;BME280;39936;51.058;17.220;2022-08-03T19:13:56;101687.50;;;24.32;51.64
54022;BME280;39936;51.058;17.220;2022-08-03T19:17:10;101684.31;;;24.22;52.40
54022;BME280;39936;51.058;17.220;2022-08-03T19:20:51;101689.15;;;24.11;53.00
54022;BME280;39936;51.058;17.220;2022-08-03T19:24:44;101687.14;;;23.99;52.64
54022;BME280;39936;51.058;17.220;2022-08-03T19:28:23;101687.68;;;23.84;54.19
54022;BME280;39936;51.058;17.220;2022-08-03T19:31:38;101687.87;;;23.68;54.49
54022;BME280;39936;51.058;17.220;2022-08-03T19:35:05;101695.23;;;23.58;53.86
54022;BME280;39936;51.058;17.220;2022-08-03T19:38:28;101695.71;;;23.41;55.54
54022;BME280;39936;51.058;17.220;2022-08-03T19:42:15;101703.30;;;23.24;56.11
54022;BME280;39936;51.058;17.220;2022-08-03T19:45:33;101701.33;;;23.06;56.03
54022;BME280;39936;51.058;17.220;2022-08-03T19:49:10;101703.00;;;22.93;57.01
54022;BME280;39936;51.058;17.220;2022-08-03T19:52:47;101705.48;;;22.71;60.32
54022;BME280;39936;51.058;17.220;2022-08-03T19:56:04;101709.72;;;22.51;59.92
54022;BME280;39936;51.058;17.220;2022-08-03T19:59:18;101708.24;;;22.36;60.87
54022;BME280;39936;51.058;17.220;2022-08-03T20:02:43;101715.53;;;22.26;59.98
54022;BME280;39936;51.058;17.220;2022-08-03T20:06:17;101715.44;;;22.15;59.92
54022;BME280;39936;51.058;17.220;2022-08-03T20:10:05;101718.98;;;22.04;61.77
54022;BME280;39936;51.058;17.220;2022-08-03T20:13:53;101718.77;;;21.94;61.42
54022;BME280;39936;51.058;17.220;2022-08-03T20:17:07;101716.62;;;21.87;61.05
54022;BME280;39936;51.058;17.220;2022-08-03T20:20:41;101715.45;;;21.82;61.47
54022;BME280;39936;51.058;17.220;2022-08-03T20:28:23;101716.59;;;21.55;63.42
54022;BME280;39936;51.058;17.220;2022-08-03T20:32:00;101722.95;;;21.48;62.84